Detroit, Michigan
Traffic Map
Current Weather Conditions
Detroit, Michigan
Clear
Clear
81°
Feels Like: 81°
Wind Chill: 81° Ceiling: Unl
Heat Index: 81° Visibility: 12mi
Dew Point: 61° Wind: 9mph
Humidity: 51% Direction: 210° (SSW)
Pressure: 30.02in Gusts: 0mph
Raw Report DataCYQG 061800Z 21008KT 160V240 12SM SKC 27/16 A3002 RMK SLP164 DENSITY ALT 2000FT
Traffic Incident Summary
Active as of:
Severity:
Category:
InformationThere was an issue retrieving the traffic information for this location. Please try a different location or try again shortly.
Advertisements
Track Severe Weather on mobile